Terminal Aerodrome Forecast
Issued by NWS Mt. Holly, NJ

Current Version | Previous Version | Text Only | Print | Product List | Glossary On
Versions: 1 2 3 4 5 6 7 8 9 10 11 12 13 14
000
FTUS41 KPHI 281120
TAFILG
TAF
KILG 281120Z 2812/2912 31004KT P6SM SKC
     FM281600 30008KT P6SM FEW070
     FM282000 25008KT P6SM FEW250
     FM282300 21007KT P6SM FEW250
     FM290600 VRB03KT P6SM FEW150=

USA.gov is the U.S. government's official web portal to all federal, state and local government web resources and services.